createdAt,value
2022-09-12T00:00:16.578Z,99.99
2022-09-12T00:01:17.059Z,99.99
2022-09-12T00:02:16.579Z,99.99
2022-09-12T00:03:16.546Z,99.99
2022-09-12T00:04:16.539Z,99.99
2022-09-12T00:05:16.515Z,99.99
2022-09-12T00:06:20.513Z,99.99
2022-09-12T00:07:17.898Z,99.99
2022-09-12T00:08:16.477Z,99.99
2022-09-12T00:09:16.468Z,99.99
2022-09-12T00:10:16.457Z,99.99
2022-09-12T00:11:16.439Z,99.99
2022-09-12T00:12:16.432Z,99.99
2022-09-12T00:13:16.785Z,99.99
2022-09-12T00:14:16.406Z,99.99
2022-09-12T00:15:16.392Z,99.99
2022-09-12T00:16:16.420Z,99.99
2022-09-12T00:17:16.365Z,99.99
2022-09-12T00:18:16.354Z,99.99
2022-09-12T00:19:16.805Z,99.99
2022-09-12T00:20:16.341Z,99.99
2022-09-12T00:21:16.320Z,99.99
2022-09-12T00:22:16.304Z,99.99
2022-09-12T00:23:16.284Z,99.99
2022-09-12T00:24:16.311Z,99.99
2022-09-12T00:25:16.629Z,99.99
2022-09-12T00:26:16.252Z,99.99
2022-09-12T00:27:16.232Z,99.99
2022-09-12T00:28:16.226Z,99.99
2022-09-12T00:29:16.214Z,99.99
2022-09-12T00:30:16.199Z,99.99
2022-09-12T00:31:23.554Z,99.99
2022-09-12T00:32:16.157Z,99.99
2022-09-12T00:33:23.149Z,99.99
2022-09-12T00:34:23.136Z,99.99
2022-09-12T00:35:24.566Z,99.99
2022-09-12T00:36:16.122Z,99.99
2022-09-12T00:37:16.097Z,99.99
2022-09-12T00:38:16.093Z,99.99
2022-09-12T00:39:16.073Z,99.99
2022-09-12T00:40:16.106Z,99.99
2022-09-12T00:41:16.473Z,99.99
2022-09-12T00:42:16.052Z,99.99
2022-09-12T00:43:16.024Z,99.99
2022-09-12T00:44:16.025Z,99.99
2022-09-12T00:45:15.990Z,99.99
2022-09-12T00:46:15.995Z,99.99
2022-09-12T00:47:16.353Z,99.99
2022-09-12T00:48:15.965Z,99.99
2022-09-12T00:49:15.951Z,99.99
2022-09-12T00:50:15.941Z,99.99
2022-09-12T00:51:15.932Z,99.99
2022-09-12T00:52:16.258Z,99.99
2022-09-12T00:53:15.901Z,99.99
2022-09-12T00:54:15.893Z,99.99
2022-09-12T00:55:15.870Z,99.99
2022-09-12T00:56:15.862Z,99.99
2022-09-12T00:57:15.861Z,99.99
2022-09-12T00:58:16.159Z,99.99
2022-09-12T00:59:15.817Z,99.99
2022-09-12T01:00:15.820Z,99.99
2022-09-12T01:01:15.863Z,99.99
2022-09-12T01:02:16.322Z,99.99
2022-09-12T01:03:15.769Z,99.99
2022-09-12T01:04:15.763Z,99.99
2022-09-12T01:05:15.738Z,99.99
2022-09-12T01:06:15.740Z,99.99
2022-09-12T01:07:15.716Z,99.99
2022-09-12T01:08:16.102Z,99.99
2022-09-12T01:09:15.687Z,99.99
2022-09-12T01:10:15.676Z,99.99
2022-09-12T01:11:15.671Z,99.99
2022-09-12T01:12:15.669Z,99.99
2022-09-12T01:13:15.655Z,99.99
2022-09-12T01:14:15.993Z,99.99
2022-09-12T01:15:15.618Z,99.99
2022-09-12T01:16:15.636Z,99.99
2022-09-12T01:17:15.588Z,99.99
2022-09-12T01:18:15.586Z,99.99
2022-09-12T01:19:15.565Z,99.99
2022-09-12T01:20:15.924Z,99.99
2022-09-12T01:21:15.546Z,99.99
2022-09-12T01:22:15.535Z,99.99
2022-09-12T01:23:15.514Z,99.99
2022-09-12T01:24:15.513Z,99.99
2022-09-12T01:25:15.490Z,99.99
2022-09-12T01:26:15.842Z,99.99
2022-09-12T01:27:15.473Z,99.99
2022-09-12T01:28:15.453Z,99.99
2022-09-12T01:29:15.455Z,99.99
2022-09-12T01:30:15.431Z,99.99
2022-09-12T01:31:15.419Z,99.99
2022-09-12T01:32:15.888Z,99.99
2022-09-12T01:33:15.380Z,99.99
2022-09-12T01:34:15.382Z,99.99
2022-09-12T01:35:22.346Z,99.99
2022-09-12T01:36:22.353Z,99.99
2022-09-12T01:37:15.758Z,99.99
2022-09-12T01:38:15.332Z,99.99
2022-09-12T01:39:15.311Z,99.99
2022-09-12T01:40:15.345Z,99.99
2022-09-12T01:41:15.289Z,99.99
2022-09-12T01:42:15.296Z,99.99
2022-09-12T01:43:15.632Z,99.99
2022-09-12T01:44:15.280Z,99.99
2022-09-12T01:45:15.236Z,99.99
2022-09-12T01:46:15.219Z,99.99
2022-09-12T01:47:15.208Z,99.99
2022-09-12T01:48:15.199Z,99.99
2022-09-12T01:49:15.536Z,99.99
2022-09-12T01:50:15.169Z,99.99
2022-09-12T01:51:15.163Z,99.99
2022-09-12T01:52:15.161Z,99.99
2022-09-12T01:53:15.131Z,99.99
2022-09-12T01:54:15.129Z,99.99
2022-09-12T01:55:15.447Z,99.99
2022-09-12T01:56:15.098Z,99.99
2022-09-12T01:57:15.088Z,99.99
2022-09-12T01:58:15.077Z,99.99
2022-09-12T01:59:15.057Z,99.99
2022-09-12T02:00:15.468Z,99.99
2022-09-12T02:01:15.087Z,99.99
2022-09-12T02:02:15.093Z,99.99
2022-09-12T02:03:15.006Z,99.99
2022-09-12T02:04:14.994Z,99.99
2022-09-12T02:05:14.977Z,99.99
2022-09-12T02:06:15.385Z,99.99
2022-09-12T02:07:14.956Z,99.99
2022-09-12T02:08:14.941Z,99.99
2022-09-12T02:09:14.926Z,99.99
2022-09-12T02:10:15.241Z,99.99
2022-09-12T02:11:14.902Z,99.99
2022-09-12T02:12:14.890Z,99.99
2022-09-12T02:13:14.874Z,99.99
2022-09-12T02:14:14.864Z,99.99
2022-09-12T02:15:14.852Z,99.99
2022-09-12T02:16:15.295Z,99.99
2022-09-12T02:17:14.834Z,99.99
2022-09-12T02:18:14.817Z,99.99
2022-09-12T02:19:14.800Z,99.99
2022-09-12T02:20:26.084Z,99.99
2022-09-12T02:21:16.153Z,99.99
2022-09-12T02:22:14.770Z,99.99
2022-09-12T02:23:14.750Z,99.99
2022-09-12T02:24:14.735Z,99.99
2022-09-12T02:25:14.719Z,99.99
2022-09-12T02:26:14.721Z,99.99
2022-09-12T02:27:15.031Z,99.99
2022-09-12T02:28:14.700Z,99.99
2022-09-12T02:29:14.680Z,99.99
2022-09-12T02:30:14.658Z,99.99
2022-09-12T02:31:14.644Z,99.99
2022-09-12T02:32:15.066Z,99.99
2022-09-12T02:33:14.634Z,99.99
2022-09-12T02:34:14.617Z,99.99
2022-09-12T02:35:14.592Z,99.99
2022-09-12T02:36:14.587Z,99.99
2022-09-12T02:37:14.567Z,99.99
2022-09-12T02:38:14.978Z,99.99
2022-09-12T02:39:14.543Z,99.99
2022-09-12T02:40:14.608Z,99.99
2022-09-12T02:41:14.514Z,99.99
2022-09-12T02:42:14.515Z,99.99
2022-09-12T02:43:14.486Z,99.99
2022-09-12T02:44:14.835Z,99.99
2022-09-12T02:45:14.457Z,99.99
2022-09-12T02:46:14.452Z,99.99
2022-09-12T02:47:14.435Z,99.99
2022-09-12T02:48:14.437Z,99.99
2022-09-12T02:49:14.408Z,99.99
2022-09-12T02:50:14.834Z,99.99
2022-09-12T02:51:14.393Z,99.99
2022-09-12T02:52:14.372Z,99.99
2022-09-12T02:53:14.360Z,99.99
2022-09-12T02:54:14.353Z,99.99
2022-09-12T02:55:14.343Z,99.99
2022-09-12T02:56:14.751Z,99.99
2022-09-12T02:57:14.304Z,99.99
2022-09-12T02:58:14.303Z,99.99
2022-09-12T02:59:14.290Z,99.99
2022-09-12T03:00:14.271Z,99.99
2022-09-12T03:01:14.695Z,99.99
2022-09-12T03:02:14.301Z,99.99
2022-09-12T03:03:14.232Z,99.99
2022-09-12T03:04:14.239Z,99.99
2022-09-12T03:05:14.202Z,99.99
2022-09-12T03:06:14.193Z,99.99
2022-09-12T03:07:14.515Z,99.99
2022-09-12T03:08:14.164Z,99.99
2022-09-12T03:09:21.146Z,99.99
2022-09-12T03:10:21.144Z,99.99
2022-09-12T03:11:14.554Z,99.99
2022-09-12T03:12:14.112Z,99.99
2022-09-12T03:13:14.105Z,99.99
2022-09-12T03:14:14.082Z,99.99
2022-09-12T03:15:14.084Z,99.99
2022-09-12T03:16:14.149Z,99.99
2022-09-12T03:17:14.471Z,99.99
2022-09-12T03:18:14.040Z,99.99
2022-09-12T03:19:14.030Z,99.99
2022-09-12T03:20:14.012Z,99.99
2022-09-12T03:21:14.005Z,99.99
2022-09-12T03:22:13.984Z,99.99
2022-09-12T03:23:14.320Z,99.99
2022-09-12T03:24:13.963Z,99.99
2022-09-12T03:25:13.950Z,99.99
2022-09-12T03:26:13.930Z,99.99
2022-09-12T03:27:13.926Z,99.99
2022-09-12T03:28:13.909Z,99.99
2022-09-12T03:29:14.268Z,99.99
2022-09-12T03:30:13.878Z,99.99
2022-09-12T03:31:13.878Z,99.99
2022-09-12T03:32:13.851Z,99.99
2022-09-12T03:33:13.847Z,99.99
2022-09-12T03:34:13.827Z,99.99
2022-09-12T03:35:14.248Z,99.99
2022-09-12T03:36:13.809Z,99.99
2022-09-12T03:37:13.796Z,99.99
2022-09-12T03:38:13.780Z,99.99
2022-09-12T03:39:13.765Z,99.99
2022-09-12T03:40:14.203Z,99.99
2022-09-12T03:41:13.745Z,99.99
2022-09-12T03:42:13.735Z,99.99
2022-09-12T03:43:13.726Z,99.99
2022-09-12T03:44:13.706Z,99.99
2022-09-12T03:45:14.067Z,99.99
2022-09-12T03:46:13.694Z,99.99
2022-09-12T03:47:13.662Z,99.99
2022-09-12T03:48:13.650Z,99.99
2022-09-12T03:49:13.634Z,99.99
2022-09-12T03:50:14.050Z,99.99
2022-09-12T03:51:13.614Z,99.99
2022-09-12T03:52:13.601Z,99.99
2022-09-12T03:53:16.943Z,99.99
2022-09-12T03:54:13.560Z,99.99
2022-09-12T03:55:20.980Z,99.99
2022-09-12T03:56:20.528Z,99.99
2022-09-12T03:57:20.522Z,99.99
2022-09-12T03:58:20.522Z,99.99
2022-09-12T03:59:20.508Z,99.99
2022-09-12T04:00:17.670Z,99.99
2022-09-12T04:01:15.146Z,99.99
2022-09-12T04:02:13.503Z,99.99
2022-09-12T04:03:13.466Z,99.99
2022-09-12T04:04:13.444Z,99.99
2022-09-12T04:05:13.426Z,99.99
2022-09-12T04:06:13.417Z,99.99
2022-09-12T04:07:13.854Z,99.99
2022-09-12T04:08:13.386Z,99.99
2022-09-12T04:09:13.386Z,99.99
2022-09-12T04:10:16.060Z,99.99
2022-09-12T04:11:13.665Z,99.99
2022-09-12T04:12:13.342Z,99.99
2022-09-12T04:13:13.337Z,99.99
2022-09-12T04:14:13.316Z,99.99
2022-09-12T04:15:13.294Z,99.99
2022-09-12T04:16:13.322Z,99.99
2022-09-12T04:17:13.270Z,99.99
2022-09-12T04:18:13.255Z,99.99
2022-09-12T04:19:13.252Z,99.99
2022-09-12T04:20:13.224Z,99.99
2022-09-12T04:21:13.212Z,99.99
2022-09-12T04:22:13.252Z,99.99
2022-09-12T04:23:13.195Z,99.99
2022-09-12T04:24:13.180Z,99.99
2022-09-12T04:25:13.180Z,99.99
2022-09-12T04:26:13.155Z,99.99
2022-09-12T04:27:13.152Z,99.99
2022-09-12T04:28:13.575Z,99.99
2022-09-12T04:29:13.141Z,99.99
2022-09-12T04:30:13.101Z,99.99
2022-09-12T04:31:13.132Z,99.99
2022-09-12T04:32:13.430Z,99.99
2022-09-12T04:33:13.071Z,99.99
2022-09-12T04:34:13.062Z,99.99
2022-09-12T04:35:13.051Z,99.99
2022-09-12T04:36:13.027Z,99.99
2022-09-12T04:37:13.019Z,99.99
2022-09-12T04:38:13.030Z,99.99
2022-09-12T04:39:19.994Z,99.99
2022-09-12T04:40:19.971Z,99.99
2022-09-12T04:41:12.972Z,99.99
2022-09-12T04:42:13.351Z,99.99
2022-09-12T04:43:14.638Z,99.99
2022-09-12T04:44:12.909Z,99.99
2022-09-12T04:45:12.909Z,99.99
2022-09-12T04:46:12.933Z,99.99
2022-09-12T04:47:12.878Z,99.99
2022-09-12T04:48:13.258Z,99.99
2022-09-12T04:49:12.862Z,99.99
2022-09-12T04:50:12.849Z,99.99
2022-09-12T04:51:12.845Z,99.99
2022-09-12T04:52:12.818Z,99.99
2022-09-12T04:53:12.819Z,99.99
2022-09-12T04:54:13.161Z,99.99
2022-09-12T04:55:12.799Z,99.99
2022-09-12T04:56:12.781Z,99.99
2022-09-12T04:57:12.770Z,99.99
2022-09-12T04:58:12.750Z,99.99
2022-09-12T04:59:12.726Z,99.99
2022-09-12T05:00:13.090Z,99.99
2022-09-12T05:01:12.738Z,99.99
2022-09-12T05:02:12.746Z,99.99
2022-09-12T05:03:12.686Z,99.99
2022-09-12T05:04:12.667Z,99.99
2022-09-12T05:05:12.656Z,99.99
2022-09-12T05:06:12.686Z,99.99
2022-09-12T05:07:12.632Z,99.99
2022-09-12T05:08:12.627Z,99.99
2022-09-12T05:09:12.618Z,99.99
2022-09-12T05:10:12.602Z,99.99
2022-09-12T05:11:12.583Z,99.99
2022-09-12T05:12:12.963Z,99.99
2022-09-12T05:13:12.557Z,99.99
2022-09-12T05:14:12.546Z,99.99
2022-09-12T05:15:12.531Z,99.99
2022-09-12T05:16:12.688Z,99.99
2022-09-12T05:17:12.504Z,99.99
2022-09-12T05:18:12.931Z,99.99
2022-09-12T05:19:12.483Z,99.99
2022-09-12T05:20:12.463Z,99.99
2022-09-12T05:21:12.463Z,99.99
2022-09-12T05:22:12.443Z,99.99
2022-09-12T05:23:12.871Z,99.99
2022-09-12T05:24:12.417Z,99.99
2022-09-12T05:25:12.403Z,99.99
2022-09-12T05:26:12.500Z,99.99
2022-09-12T05:27:12.380Z,99.99
2022-09-12T05:28:12.808Z,99.99
2022-09-12T05:29:12.364Z,99.99
2022-09-12T05:30:12.333Z,99.99
2022-09-12T05:31:12.340Z,99.99
2022-09-12T05:32:12.319Z,99.99
2022-09-12T05:33:12.709Z,99.99
2022-09-12T05:34:12.290Z,99.99
2022-09-12T05:35:12.276Z,99.99
2022-09-12T05:36:12.271Z,99.99
2022-09-12T05:37:12.255Z,99.99
2022-09-12T05:38:12.237Z,99.99
2022-09-12T05:39:12.599Z,99.99
2022-09-12T05:40:12.225Z,99.99
2022-09-12T05:41:16.648Z,99.99
2022-09-12T05:42:13.187Z,99.99
2022-09-12T05:43:12.178Z,99.99
2022-09-12T05:44:12.158Z,99.99
2022-09-12T05:45:12.487Z,99.99
2022-09-12T05:46:12.166Z,99.99
2022-09-12T05:47:12.118Z,99.99
2022-09-12T05:48:12.116Z,99.99
2022-09-12T05:49:12.095Z,99.99
2022-09-12T05:50:12.515Z,99.99
2022-09-12T05:51:12.072Z,99.99
2022-09-12T05:52:12.055Z,99.99
2022-09-12T05:53:12.046Z,99.99
2022-09-12T05:54:12.047Z,99.99
2022-09-12T05:55:12.034Z,99.99
2022-09-12T05:56:12.444Z,99.99
2022-09-12T05:57:11.994Z,99.99
2022-09-12T05:58:11.982Z,99.99
2022-09-12T05:59:11.986Z,99.99
2022-09-12T06:00:11.963Z,99.99
2022-09-12T06:01:11.979Z,99.99
2022-09-12T06:02:12.331Z,99.99
2022-09-12T06:03:11.929Z,99.99
2022-09-12T06:04:11.916Z,99.99
2022-09-12T06:05:11.891Z,99.99
2022-09-12T06:06:11.891Z,99.99
2022-09-12T06:07:11.865Z,99.99
2022-09-12T06:08:12.180Z,99.99
2022-09-12T06:09:11.984Z,99.99
2022-09-12T06:10:11.831Z,99.99
2022-09-12T06:11:11.822Z,99.99
2022-09-12T06:12:11.800Z,99.99
2022-09-12T06:13:12.248Z,99.99
2022-09-12T06:14:11.770Z,99.99
2022-09-12T06:15:11.788Z,99.99
2022-09-12T06:16:11.749Z,99.99
2022-09-12T06:17:11.748Z,99.99
2022-09-12T06:18:11.740Z,99.99
2022-09-12T06:19:12.154Z,99.99
2022-09-12T06:20:11.710Z,99.99
2022-09-12T06:21:11.728Z,99.99
2022-09-12T06:22:11.677Z,99.99
2022-09-12T06:23:11.674Z,99.99
2022-09-12T06:24:12.047Z,99.99
2022-09-12T06:25:11.645Z,99.99
2022-09-12T06:26:11.618Z,99.99
2022-09-12T06:27:11.619Z,99.99
2022-09-12T06:28:11.601Z,99.99
2022-09-12T06:29:11.595Z,99.99
2022-09-12T06:30:12.017Z,99.99
2022-09-12T06:31:11.638Z,99.99
2022-09-12T06:32:11.535Z,99.99
2022-09-12T06:33:11.535Z,99.99
2022-09-12T06:34:11.525Z,99.99
2022-09-12T06:35:11.510Z,99.99
2022-09-12T06:36:12.706Z,99.99
2022-09-12T06:37:11.492Z,99.99
2022-09-12T06:38:11.468Z,99.99
2022-09-12T06:39:11.456Z,99.99
2022-09-12T06:40:11.506Z,99.99
2022-09-12T06:41:11.866Z,99.99
2022-09-12T06:42:11.422Z,99.99
2022-09-12T06:43:11.405Z,99.99
2022-09-12T06:44:18.378Z,99.99
2022-09-12T06:45:18.376Z,99.99
2022-09-12T06:46:18.476Z,99.99
2022-09-12T06:47:11.352Z,99.99
2022-09-12T06:48:11.331Z,99.99
2022-09-12T06:49:11.329Z,99.35
2022-09-12T06:50:11.306Z,98.94
2022-09-12T06:51:11.298Z,98.84
2022-09-12T06:52:11.603Z,99.00
2022-09-12T06:53:11.278Z,99.00
2022-09-12T06:54:11.262Z,97.06
2022-09-12T06:55:11.245Z,96.70
2022-09-12T06:56:11.221Z,97.92
2022-09-12T06:57:11.221Z,97.78
2022-09-12T06:58:11.289Z,97.47
2022-09-12T06:59:11.197Z,96.66
2022-09-12T07:00:11.455Z,96.51
2022-09-12T07:01:11.227Z,96.20
2022-09-12T07:02:11.196Z,95.90
2022-09-12T07:03:11.139Z,95.65
2022-09-12T07:04:11.182Z,95.54
2022-09-12T07:05:11.145Z,94.69
2022-09-12T07:06:11.097Z,94.48
2022-09-12T07:07:11.092Z,93.06
2022-09-12T07:08:11.072Z,92.96
2022-09-12T07:09:11.073Z,93.37
2022-09-12T07:10:11.471Z,92.21
2022-09-12T07:11:11.039Z,92.30
2022-09-12T07:12:11.019Z,92.21
2022-09-12T07:13:11.008Z,92.87
2022-09-12T07:14:11.007Z,92.26
2022-09-12T07:15:11.029Z,90.17
2022-09-12T07:16:11.756Z,92.00
2022-09-12T07:17:10.981Z,92.71
2022-09-12T07:18:10.952Z,92.57
2022-09-12T07:19:10.933Z,90.64
2022-09-12T07:20:10.917Z,90.78
2022-09-12T07:21:10.927Z,92.96
2022-09-12T07:22:17.884Z,93.93
2022-09-12T07:23:17.872Z,93.63
2022-09-12T07:24:17.877Z,92.87
2022-09-12T07:25:11.277Z,92.42
2022-09-12T07:26:17.833Z,91.56
2022-09-12T07:27:17.829Z,90.35
2022-09-12T07:28:17.806Z,90.25
2022-09-12T07:29:35.246Z,89.90
2022-09-12T07:31:21.277Z,88.93
2022-09-12T07:32:28.946Z,90.09
2022-09-12T07:33:20.937Z,89.31
2022-09-12T07:34:20.926Z,90.44
2022-09-12T07:35:21.356Z,90.59
2022-09-12T07:36:20.951Z,89.98
2022-09-12T07:37:20.904Z,91.25
2022-09-12T07:38:20.893Z,91.71
2022-09-12T07:39:20.872Z,91.41
2022-09-12T07:40:21.275Z,90.96
2022-09-12T07:41:20.836Z,90.05
2022-09-12T07:42:20.828Z,90.14
2022-09-12T07:43:20.806Z,89.03
2022-09-12T07:44:20.805Z,89.43
2022-09-12T07:45:21.166Z,89.09
2022-09-12T07:46:20.814Z,89.50
2022-09-12T07:47:20.764Z,88.73
2022-09-12T07:48:20.745Z,90.44
2022-09-12T07:49:20.763Z,91.91
2022-09-12T07:50:21.062Z,91.67
2022-09-12T07:51:20.704Z,89.35
2022-09-12T07:52:20.695Z,89.86
2022-09-12T07:53:20.683Z,88.29
2022-09-12T07:54:20.673Z,87.87
2022-09-12T07:55:21.103Z,85.80
2022-09-12T07:56:20.665Z,85.76
2022-09-12T07:57:20.634Z,83.76
2022-09-12T07:58:20.616Z,82.95
2022-09-12T07:59:35.724Z,81.64
2022-09-12T08:00:22.032Z,81.88
2022-09-12T08:01:20.650Z,82.59
2022-09-12T08:02:20.612Z,82.39
2022-09-12T08:03:20.563Z,82.49
2022-09-12T08:04:20.543Z,82.45
2022-09-12T08:05:20.963Z,80.39
2022-09-12T08:06:20.525Z,79.81
2022-09-12T08:07:20.503Z,78.90
2022-09-12T08:08:20.500Z,79.16
2022-09-12T08:09:20.483Z,77.15
2022-09-12T08:10:20.460Z,78.06
2022-09-12T08:11:20.692Z,77.62
2022-09-12T08:12:20.465Z,77.21
2022-09-12T08:13:20.432Z,77.21
2022-09-12T08:14:20.421Z,77.42
2022-09-12T08:15:20.851Z,77.62
2022-09-12T08:16:20.383Z,78.02
2022-09-12T08:17:20.376Z,79.50
2022-09-12T08:18:20.372Z,80.41
2022-09-12T08:19:20.351Z,80.65
2022-09-12T08:20:20.331Z,79.88
2022-09-12T08:21:20.650Z,81.13
2022-09-12T08:22:20.303Z,82.89
2022-09-12T08:23:27.287Z,83.13
2022-09-12T08:24:27.294Z,84.08
2022-09-12T08:25:21.521Z,84.89
2022-09-12T08:26:20.256Z,85.25
2022-09-12T08:27:20.241Z,85.36
2022-09-12T08:28:20.240Z,85.05
2022-09-12T08:29:20.214Z,85.25
2022-09-12T08:30:20.250Z,85.62
2022-09-12T08:31:20.685Z,85.02
2022-09-12T08:32:20.183Z,85.22
2022-09-12T08:33:20.164Z,84.17
2022-09-12T08:34:20.173Z,84.27
2022-09-12T08:35:20.557Z,84.37
2022-09-12T08:36:20.125Z,84.77
2022-09-12T08:37:20.115Z,84.77
2022-09-12T08:38:20.103Z,85.58
2022-09-12T08:39:20.093Z,83.56
2022-09-12T08:40:20.436Z,83.66
2022-09-12T08:41:20.082Z,84.06
2022-09-12T08:42:20.052Z,84.57
2022-09-12T08:43:20.151Z,84.37
2022-09-12T08:44:20.034Z,84.06
2022-09-12T08:45:20.542Z,83.05
2022-09-12T08:46:20.099Z,83.26
2022-09-12T08:47:19.983Z,82.14
2022-09-12T08:48:19.972Z,82.35
2022-09-12T08:49:19.988Z,82.14
2022-09-12T08:50:20.324Z,81.64
2022-09-12T08:51:19.943Z,82.65
2022-09-12T08:52:19.924Z,82.81
2022-09-12T08:53:19.908Z,81.80
2022-09-12T08:54:19.932Z,81.50
2022-09-12T08:55:20.191Z,81.56
2022-09-12T08:56:19.943Z,81.87
2022-09-12T08:57:19.883Z,81.26
2022-09-12T08:58:19.838Z,81.02
2022-09-12T08:59:19.837Z,80.31
2022-09-12T09:00:20.279Z,80.21
2022-09-12T09:01:19.884Z,80.82
2022-09-12T09:02:19.815Z,80.31
2022-09-12T09:03:19.777Z,80.38
2022-09-12T09:04:19.772Z,80.47
2022-09-12T09:05:20.131Z,80.38
2022-09-12T09:06:19.741Z,79.63
2022-09-12T09:07:19.731Z,79.03
2022-09-12T09:08:19.710Z,79.23
2022-09-12T09:09:19.720Z,78.32
2022-09-12T09:10:20.120Z,77.82
2022-09-12T09:11:19.679Z,78.32
2022-09-12T09:12:19.659Z,78.63
2022-09-12T09:13:19.650Z,78.08
2022-09-12T09:14:19.629Z,77.98
2022-09-12T09:15:19.938Z,77.95
2022-09-12T09:16:19.683Z,77.44
2022-09-12T09:17:19.589Z,77.75
2022-09-12T09:18:19.586Z,76.74
2022-09-12T09:19:19.616Z,77.70
2022-09-12T09:20:21.159Z,77.31
2022-09-12T09:21:19.542Z,77.50
2022-09-12T09:22:19.536Z,77.77
2022-09-12T09:23:19.628Z,76.76
2022-09-12T09:24:19.524Z,76.93
2022-09-12T09:25:22.851Z,76.26
2022-09-12T09:26:19.477Z,76.06
2022-09-12T09:27:37.311Z,76.12
2022-09-12T09:28:20.466Z,75.02
2022-09-12T09:29:19.438Z,75.02
2022-09-12T09:30:19.763Z,74.08
2022-09-12T09:31:19.448Z,75.18
2022-09-12T09:32:19.406Z,74.68
2022-09-12T09:33:19.388Z,75.49
2022-09-12T09:34:19.398Z,75.09
2022-09-12T09:35:19.796Z,74.08
2022-09-12T09:36:19.493Z,74.15
2022-09-12T09:37:19.336Z,74.15
2022-09-12T09:38:19.439Z,73.74
2022-09-12T09:39:19.305Z,73.00
2022-09-12T09:40:19.734Z,73.10
2022-09-12T09:41:19.297Z,73.27
2022-09-12T09:42:19.310Z,72.56
2022-09-12T09:43:19.257Z,71.93
2022-09-12T09:44:19.253Z,71.53
2022-09-12T09:45:19.575Z,70.73
2022-09-12T09:46:19.289Z,70.89
2022-09-12T09:47:19.199Z,71.20
2022-09-12T09:48:19.188Z,71.30
2022-09-12T09:49:19.178Z,70.96
2022-09-12T09:50:19.203Z,69.96
2022-09-12T09:51:19.184Z,69.66
2022-09-12T09:52:19.145Z,69.16
2022-09-12T09:53:19.144Z,69.26
2022-09-12T09:54:19.127Z,69.26
2022-09-12T09:55:19.551Z,69.06
2022-09-12T09:56:21.499Z,69.96
2022-09-12T09:57:19.079Z,69.76
2022-09-12T09:58:19.074Z,69.26
2022-09-12T09:59:19.057Z,69.76
2022-09-12T10:00:19.414Z,69.62
2022-09-12T10:01:19.066Z,69.53
2022-09-12T10:02:23.671Z,69.23
2022-09-12T10:03:20.004Z,69.09
2022-09-12T10:04:19.013Z,68.69
2022-09-12T10:05:19.038Z,69.09
2022-09-12T10:06:18.974Z,66.89
2022-09-12T10:07:18.959Z,67.55
2022-09-12T10:08:18.946Z,67.96
2022-09-12T10:09:18.947Z,67.25
2022-09-12T10:10:18.939Z,67.46
2022-09-12T10:11:19.486Z,67.43
2022-09-12T10:12:18.917Z,67.72
2022-09-12T10:13:18.893Z,68.13
2022-09-12T10:14:20.853Z,67.19
2022-09-12T10:15:18.894Z,65.09
2022-09-12T10:16:18.975Z,66.09
2022-09-12T10:17:18.839Z,65.99
2022-09-12T10:18:18.838Z,65.79
2022-09-12T10:19:18.794Z,66.39
2022-09-12T10:20:21.838Z,65.89
2022-09-12T10:21:18.814Z,64.29
2022-09-12T10:22:18.803Z,64.69
2022-09-12T10:23:18.792Z,65.66
2022-09-12T10:24:18.752Z,66.06
2022-09-12T10:25:19.233Z,65.03
2022-09-12T10:26:18.703Z,64.73
2022-09-12T10:27:18.703Z,64.33
2022-09-12T10:28:18.700Z,64.00
2022-09-12T10:29:18.663Z,65.20
2022-09-12T10:30:18.712Z,63.57
2022-09-12T10:31:18.723Z,62.67
2022-09-12T10:32:18.654Z,62.67
2022-09-12T10:33:18.615Z,63.17
2022-09-12T10:34:18.601Z,63.14
2022-09-12T10:35:18.952Z,62.74
2022-09-12T10:36:18.604Z,62.54
2022-09-12T10:37:22.324Z,62.54
2022-09-12T10:38:18.561Z,63.14
2022-09-12T10:39:18.542Z,62.04
2022-09-12T10:40:18.974Z,62.04
2022-09-12T10:41:18.514Z,61.44
2022-09-12T10:42:22.841Z,61.85
2022-09-12T10:43:18.491Z,61.94
2022-09-12T10:44:18.482Z,62.01
2022-09-12T10:45:18.902Z,61.71
2022-09-12T10:46:18.580Z,61.49
2022-09-12T10:47:18.455Z,62.08
2022-09-12T10:48:18.432Z,59.02
2022-09-12T10:49:18.410Z,58.95
2022-09-12T10:50:22.834Z,59.35
2022-09-12T10:51:19.101Z,60.45
2022-09-12T10:52:18.398Z,60.85
2022-09-12T10:53:18.377Z,61.32
2022-09-12T10:54:18.371Z,59.95
2022-09-12T10:55:18.691Z,60.95
2022-09-12T10:56:18.333Z,61.35
2022-09-12T10:57:18.315Z,61.47
2022-09-12T10:58:18.332Z,60.17
2022-09-12T10:59:20.235Z,60.48
2022-09-12T11:00:18.292Z,60.55
2022-09-12T11:01:18.337Z,60.32
2022-09-12T11:02:18.306Z,58.85
2022-09-12T11:03:18.311Z,59.45
2022-09-12T11:04:18.231Z,59.52
2022-09-12T11:05:22.436Z,59.82
2022-09-12T11:06:18.235Z,59.62
2022-09-12T11:07:18.253Z,60.22
2022-09-12T11:08:18.455Z,59.99
2022-09-12T11:09:18.273Z,59.09
2022-09-12T11:10:18.504Z,57.53
2022-09-12T11:11:20.568Z,57.73
2022-09-12T11:12:18.400Z,57.86
2022-09-12T11:13:18.235Z,58.03
2022-09-12T11:14:18.109Z,58.45
2022-09-12T11:15:18.130Z,58.42
2022-09-12T11:16:25.062Z,58.62
2022-09-12T11:17:18.041Z,58.20
2022-09-12T11:18:26.984Z,59.09
2022-09-12T11:19:18.048Z,57.28
2022-09-12T11:20:25.071Z,56.68
2022-09-12T11:21:25.937Z,55.08
2022-09-12T11:22:28.642Z,55.26
2022-09-12T11:23:18.985Z,54.38
2022-09-12T11:24:25.998Z,54.26
2022-09-12T11:25:24.975Z,54.56
2022-09-12T11:26:17.955Z,53.96
2022-09-12T11:27:25.281Z,53.06
2022-09-12T11:28:17.911Z,53.66
2022-09-12T11:29:17.983Z,53.96
2022-09-12T11:30:18.009Z,54.03
2022-09-12T11:31:17.945Z,54.43
2022-09-12T11:32:17.870Z,53.83
2022-09-12T11:33:17.871Z,53.44
2022-09-12T11:34:17.958Z,54.43
2022-09-12T11:35:17.912Z,54.73
2022-09-12T11:36:17.922Z,56.23
2022-09-12T11:37:18.277Z,55.05
2022-09-12T11:38:17.829Z,54.06
2022-09-12T11:39:17.770Z,54.16
2022-09-12T11:40:18.013Z,53.76
2022-09-12T11:41:17.741Z,53.66
2022-09-12T11:42:17.751Z,54.33
2022-09-12T11:43:17.720Z,54.63
2022-09-12T11:44:17.720Z,54.01
2022-09-12T11:45:18.164Z,54.01
2022-09-12T11:46:17.828Z,53.61
2022-09-12T11:47:17.690Z,53.51
2022-09-12T11:48:17.672Z,53.61
2022-09-12T11:49:17.650Z,54.73
2022-09-12T11:50:17.858Z,54.83
2022-09-12T11:51:17.629Z,54.63
2022-09-12T11:52:17.624Z,55.20
2022-09-12T11:53:17.601Z,54.11
2022-09-12T11:54:17.667Z,56.40
2022-09-12T11:55:18.679Z,55.93
2022-09-12T11:56:17.657Z,54.13
2022-09-12T11:57:17.540Z,53.24
2022-09-12T11:58:17.540Z,53.64
2022-09-12T11:59:17.520Z,52.44
2022-09-12T12:00:17.514Z,52.34
2022-09-12T12:01:17.531Z,51.35
2022-09-12T12:02:17.529Z,51.84
2022-09-12T12:03:17.535Z,51.82
2022-09-12T12:04:17.468Z,49.73
2022-09-12T12:05:17.489Z,52.32
2022-09-12T12:06:17.444Z,51.54
2022-09-12T12:07:17.430Z,50.35
2022-09-12T12:08:17.409Z,51.03
2022-09-12T12:09:17.398Z,51.12
2022-09-12T12:10:17.396Z,51.92
2022-09-12T12:11:17.397Z,51.82
2022-09-12T12:12:17.387Z,50.60
2022-09-12T12:13:17.340Z,50.90
2022-09-12T12:14:17.330Z,51.60
2022-09-12T12:15:17.361Z,50.48
2022-09-12T12:16:17.325Z,51.57
2022-09-12T12:17:17.299Z,50.58
2022-09-12T12:18:17.279Z,50.28
2022-09-12T12:19:17.270Z,48.59
2022-09-12T12:20:17.273Z,47.80
2022-09-12T12:21:17.270Z,49.19
2022-09-12T12:22:17.239Z,50.88
2022-09-12T12:23:17.278Z,48.59
2022-09-12T12:24:17.208Z,48.19
2022-09-12T12:25:21.323Z,48.19
2022-09-12T12:26:17.190Z,48.10
2022-09-12T12:27:17.169Z,48.39
2022-09-12T12:28:17.168Z,48.19
2022-09-12T12:29:17.147Z,48.79
2022-09-12T12:30:17.298Z,48.79
2022-09-12T12:31:17.197Z,48.47
2022-09-12T12:32:17.275Z,49.38
2022-09-12T12:33:17.089Z,49.86
2022-09-12T12:34:17.091Z,50.05
2022-09-12T12:35:17.469Z,48.57
2022-09-12T12:36:17.067Z,48.35
2022-09-12T12:37:17.038Z,48.65
2022-09-12T12:38:17.029Z,50.23
2022-09-12T12:39:17.018Z,49.54
2022-09-12T12:40:17.067Z,47.45
2022-09-12T12:41:17.416Z,47.55
2022-09-12T12:42:19.161Z,47.45
2022-09-12T12:43:16.963Z,48.35
2022-09-12T12:44:17.053Z,48.84
2022-09-12T12:45:17.711Z,48.32
2022-09-12T12:46:16.998Z,47.45
2022-09-12T12:47:16.928Z,45.84
2022-09-12T12:48:16.902Z,46.73
2022-09-12T12:49:16.899Z,45.25
2022-09-12T12:50:16.881Z,46.14
2022-09-12T12:51:17.309Z,46.24
2022-09-12T12:52:16.860Z,46.24
2022-09-12T12:53:16.843Z,47.63